Time;durP1;ratioP1;P1;durP2;ratioP2;P2;SDS_P1;SDS_P2;PMS_P1;PMS_P2;Temp;Humidity;BMP_temperature;BMP_pressure;BME280_temperature;BME280_humidity;BME280_pressure;Samples;Min_cycle;Max_cycle;Signal;HPM_P1;HPM_P2
2024/01/06 00:00:36;;;;;;;31.03;28.63;;;;;;;-141.02;80.96;39430.09;5112010;28;20189;-75
2024/01/06 00:03:02;;;;;;;33.53;31.03;;;;;;;-141.02;80.58;39437.78;5111916;28;20203;-75
2024/01/06 00:05:29;;;;;;;33.90;31.30;;;;;;;-141.02;80.31;39474.22;5111964;28;20208;-75
2024/01/06 00:07:56;;;;;;;31.60;29.20;;;;;;;-141.02;79.96;39424.34;5111845;28;20202;-76
2024/01/06 00:10:26;;;;;;;28.60;26.30;;;;;;;-141.02;78.68;39458.88;5111869;28;20197;-75
2024/01/06 00:12:53;;;;;;;30.80;28.47;;;;;;;-141.02;74.26;39474.22;5111900;28;20587;-75
2024/01/06 00:15:20;;;;;;;30.33;28.03;;;;;;;-141.02;73.27;39468.47;5111992;28;20654;-75
2024/01/06 00:17:47;;;;;;;27.17;24.97;;;;;;;-141.02;72.39;39527.91;5112182;28;20292;-75
2024/01/06 00:20:14;;;;;;;29.53;27.13;;;;;;;-141.02;71.79;39520.25;5111743;28;20284;-75
2024/01/06 00:22:41;;;;;;;30.70;28.33;;;;;;;-141.02;71.75;39501.06;5112070;28;20215;-75
2024/01/06 00:25:08;;;;;;;32.47;29.97;;;;;;;-141.02;73.53;39495.31;5111795;28;20193;-75
2024/01/06 00:27:37;;;;;;;32.53;30.03;;;;;;;-141.02;73.00;39485.72;5111716;28;20758;-75
2024/01/06 00:30:04;;;;;;;32.90;30.40;;;;;;;-141.02;74.64;39535.59;5114602;28;20189;-75
2024/01/06 00:32:31;;;;;;;34.30;31.73;;;;;;;-141.02;74.20;39504.91;5115640;28;20197;-75
2024/01/06 00:34:58;;;;;;;30.07;27.67;;;;;;;-141.02;74.08;39489.56;5115172;28;20316;-74
2024/01/06 00:37:25;;;;;;;36.20;33.50;;;;;;;-141.02;75.85;39489.56;5115167;28;20257;-75
2024/01/06 00:39:52;;;;;;;32.83;30.33;;;;;;;-141.02;75.55;39516.41;5115178;28;20280;-75
2024/01/06 00:42:19;;;;;;;32.97;30.57;;;;;;;-141.02;76.47;39487.66;5115435;28;20594;-75
2024/01/06 00:44:47;;;;;;;29.23;26.93;;;;;;;-141.02;78.62;39489.56;5115129;28;20303;-75
2024/01/06 00:47:14;;;;;;;33.77;31.27;;;;;;;-141.02;89.93;39430.09;5115351;28;20193;-75
2024/01/06 00:49:41;;;;;;;32.03;29.63;;;;;;;-141.02;94.88;39405.19;5114953;28;20197;-74
2024/01/06 00:52:08;;;;;;;32.07;29.57;;;;;;;-141.02;93.26;39445.44;5114960;28;20197;-75
2024/01/06 00:54:35;;;;;;;34.10;31.60;;;;;;;-141.02;90.81;39441.63;5115125;28;20656;-75
2024/01/06 00:57:02;;;;;;;36.67;33.97;;;;;;;-141.02;88.87;39447.38;5115113;28;20189;-76
2024/01/06 00:59:29;;;;;;;32.33;29.93;;;;;;;-141.02;86.84;39439.69;5114807;28;20214;-75
2024/01/06 01:01:57;;;;;;;28.70;26.40;;;;;;;-141.02;87.13;39489.56;5115045;28;20284;-75
2024/01/06 01:04:24;;;;;;;31.57;29.17;;;;;;;-141.02;85.61;39456.97;5114970;28;20215;-75
2024/01/06 01:06:51;;;;;;;32.13;29.73;;;;;;;-141.02;85.30;39451.22;5114674;28;20193;-75
2024/01/06 01:09:18;;;;;;;30.07;27.67;;;;;;;-141.02;87.21;39456.97;5114548;28;20658;-74
2024/01/06 01:11:45;;;;;;;28.13;25.83;;;;;;;-141.02;84.25;39432.03;5114876;28;20310;-76
2024/01/06 01:14:12;;;;;;;31.93;29.43;;;;;;;-141.02;89.53;39424.34;5114502;28;20225;-75
2024/01/06 01:16:39;;;;;;;31.83;29.33;;;;;;;-141.02;92.10;39432.03;5114465;28;20231;-75
2024/01/06 01:19:08;;;;;;;30.83;28.43;;;;;;;-141.02;91.22;39470.38;5114803;28;20224;-75
2024/01/06 01:21:35;;;;;;;31.90;29.40;;;;;;;-141.02;84.90;39462.72;5114748;28;20548;-75
2024/01/06 01:24:02;;;;;;;31.57;29.07;;;;;;;-141.02;82.93;39470.38;5114658;28;20203;-76
2024/01/06 01:26:29;;;;;;;31.57;29.17;;;;;;;-141.02;79.65;39489.56;5114627;28;20220;-75
2024/01/06 01:28:56;;;;;;;27.77;25.47;;;;;;;-141.02;78.75;39455.03;5114249;28;20205;-75
2024/01/06 01:31:23;;;;;;;28.83;26.43;;;;;;;-141.02;77.93;39539.44;5114557;28;20251;-75
2024/01/06 01:33:50;;;;;;;30.77;28.37;;;;;;;-141.02;77.21;39489.56;5114406;28;20193;-75
2024/01/06 01:36:18;;;;;;;31.60;29.10;;;;;;;-141.02;79.79;39504.91;5114305;28;20331;-74
2024/01/06 01:38:45;;;;;;;32.47;29.97;;;;;;;-141.02;79.02;39466.53;5113966;28;20686;-76
2024/01/06 01:41:12;;;;;;;28.53;26.13;;;;;;;-141.02;82.45;39462.72;5114195;28;20296;-75
2024/01/06 01:43:39;;;;;;;33.03;30.50;;;;;;;-141.02;81.48;39466.53;5114295;28;20288;-75
2024/01/06 01:46:06;;;;;;;29.93;27.53;;;;;;;-141.02;81.65;39508.75;5113996;28;20283;-75
2024/01/06 01:48:34;;;;;;;31.33;28.93;;;;;;;-141.02;83.30;39458.88;5114228;28;20197;-75
2024/01/06 01:51:01;;;;;;;32.37;29.87;;;;;;;-141.02;84.31;39447.38;5114040;28;20284;-75
2024/01/06 01:53:32;;;;;;;31.50;29.10;;;;;;;-141.02;84.11;39437.78;5114065;28;20560;-74
2024/01/06 01:55:59;;;;;;;28.37;26.07;;;;;;;-141.02;80.01;39491.47;5114034;28;20221;-75
2024/01/06 01:58:26;;;;;;;24.53;22.43;;;;;;;-141.02;74.16;39518.31;5114031;28;20200;-75
2024/01/06 02:00:54;;;;;;;29.27;27.03;;;;;;;-141.02;76.48;39512.56;5113559;28;20197;-75
2024/01/06 02:03:22;;;;;;;32.23;29.73;;;;;;;-141.02;77.93;39506.81;5113801;28;20292;-75
2024/01/06 02:05:49;;;;;;;31.60;29.20;;;;;;;-141.02;80.29;39489.56;5114239;28;20197;-75
2024/01/06 02:08:16;;;;;;;27.05;24.85;;;;;;;-141.02;79.46;39508.75;5114053;28;20228;-75
2024/01/06 02:10:44;;;;;;;31.30;28.90;;;;;;;-141.02;78.44;39501.06;5113654;28;20284;-75
2024/01/06 02:13:12;;;;;;;29.97;27.57;;;;;;;-141.02;80.19;39481.88;5113657;28;20284;-75
2024/01/06 02:15:39;;;;;;;33.77;31.17;;;;;;;-141.02;92.00;39389.84;5113110;28;20726;-75
2024/01/06 02:18:07;;;;;;;26.90;24.60;;;;;;;-141.02;93.27;39458.88;5113527;28;20207;-75
2024/01/06 02:20:34;;;;;;;31.13;28.73;;;;;;;-141.02;100.00;39422.44;5113229;28;20228;-75
2024/01/06 02:23:02;;;;;;;28.27;26.07;;;;;;;-141.02;100.00;39301.63;5113188;28;20199;-75
2024/01/06 02:25:29;;;;;;;27.07;25.07;;;;;;;-141.02;100.00;39121.34;5113124;28;20652;-75
2024/01/06 02:27:56;;;;;;;77.67;70.57;;;;;;;-141.02;100.00;39163.53;5113438;28;20284;-75
2024/01/06 02:30:23;;;;;;;26.43;24.43;;;;;;;-141.02;100.00;39167.38;5113890;28;20203;-75
2024/01/06 02:32:50;;;;;;;24.70;22.90;;;;;;;-141.02;100.00;39083.00;5113260;28;20276;-75
2024/01/06 02:35:17;;;;;;;24.83;22.83;;;;;;;-141.02;100.00;39130.94;5112936;28;20274;-75
2024/01/06 02:37:44;;;;;;;27.00;24.87;;;;;;;-141.02;100.00;39201.91;5112886;28;20640;-75
2024/01/06 02:40:14;;;;;;;25.07;23.27;;;;;;;-141.02;100.00;39175.06;5112916;28;20280;-75
2024/01/06 02:42:41;;;;;;;25.30;23.50;;;;;;;-141.02;100.00;39025.47;5112836;28;20329;-75
2024/01/06 02:45:09;;;;;;;23.63;21.73;;;;;;;-141.02;100.00;39071.50;5113141;28;20281;-75
2024/01/06 02:47:36;;;;;;;28.33;26.23;;;;;;;-141.02;100.00;39132.88;5113361;28;20188;-75
2024/01/06 02:50:04;;;;;;;24.80;23.00;;;;;;;-141.02;100.00;39036.97;5112820;28;20726;-75
2024/01/06 02:52:31;;;;;;;25.40;23.60;;;;;;;-141.02;100.00;38912.34;5112206;28;20288;-75
2024/01/06 02:54:58;;;;;;;24.70;22.90;;;;;;;-141.02;100.00;38910.44;5112591;28;20307;-75
2024/01/06 02:57:27;;;;;;;24.30;22.60;;;;;;;-141.02;100.00;38964.13;5112703;28;20635;-75
2024/01/06 02:59:54;;;;;;;23.17;21.67;;;;;;;-141.02;100.00;38856.72;5112529;28;20671;-75
2024/01/06 03:02:21;;;;;;;25.23;23.43;;;;;;;-141.02;100.00;38941.09;5112840;28;20271;-75
2024/01/06 03:04:48;;;;;;;23.33;21.50;;;;;;;-141.02;100.00;39054.25;5112841;28;20224;-75
2024/01/06 03:07:16;;;;;;;23.67;21.77;;;;;;;-141.02;100.00;39121.34;5112429;28;20288;-74
2024/01/06 03:09:43;;;;;;;27.33;25.23;;;;;;;-141.02;100.00;39171.22;5112459;28;20199;-75
2024/01/06 03:12:10;;;;;;;29.30;27.10;;;;;;;-141.02;100.00;39188.47;5112700;28;20192;-75
2024/01/06 03:14:39;;;;;;;26.23;24.33;;;;;;;-141.02;100.00;39086.84;5112235;28;20220;-75
2024/01/06 03:17:06;;;;;;;23.63;21.83;;;;;;;-141.02;100.00;39010.13;5112399;28;20280;-75
2024/01/06 03:19:33;;;;;;;24.40;22.60;;;;;;;-141.02;100.00;38966.03;5112684;28;20228;-75
2024/01/06 03:22:00;;;;;;;23.27;21.57;;;;;;;-141.02;100.00;38893.16;5112334;28;20678;-75
2024/01/06 03:24:28;;;;;;;25.83;24.03;;;;;;;-141.02;100.00;38941.09;5112642;28;20275;-76
2024/01/06 03:26:55;;;;;;;26.63;24.73;;;;;;;-141.02;100.00;38975.63;5112643;28;20280;-75
2024/01/06 03:29:22;;;;;;;27.27;25.27;;;;;;;-141.02;100.00;39063.81;5112225;28;20287;-76
2024/01/06 03:31:59;;;;;;;22.80;21.10;;;;;;;-141.02;100.00;39060.00;5112572;28;20230;-74
2024/01/06 03:34:26;;;;;;;21.83;20.20;;;;;;;-141.02;100.00;38967.94;5112143;28;20239;-75
2024/01/06 03:36:52;;;;;;;24.60;22.80;;;;;;;-141.02;100.00;39033.16;5112409;28;20229;-75
2024/01/06 03:39:19;;;;;;;25.57;23.77;;;;;;;-141.02;100.00;39025.47;5112175;28;20292;-76
2024/01/06 03:41:46;;;;;;;26.40;24.40;;;;;;;-141.02;100.00;39025.47;5112166;28;20268;-75
2024/01/06 03:44:14;;;;;;;23.63;21.93;;;;;;;-141.02;100.00;38994.78;5112433;28;20199;-75
2024/01/06 03:46:41;;;;;;;22.20;20.50;;;;;;;-141.02;100.00;38975.63;5112085;28;20195;-75
2024/01/06 03:49:09;;;;;;;26.90;24.97;;;;;;;-141.02;100.00;38962.19;5112404;28;20263;-75
2024/01/06 03:51:36;;;;;;;23.50;21.80;;;;;;;-141.02;100.00;38979.47;5112361;28;20189;-75
2024/01/06 03:54:03;;;;;;;24.93;23.23;;;;;;;-141.02;100.00;38914.25;5112390;28;20582;-75
2024/01/06 03:56:30;;;;;;;21.60;20.00;;;;;;;-141.02;100.00;38914.25;5111938;28;20720;-75
2024/01/06 03:58:57;;;;;;;23.17;21.57;;;;;;;-141.02;100.00;38872.06;5112346;28;20195;-75
2024/01/06 04:01:24;;;;;;;23.53;21.93;;;;;;;-141.02;100.00;38814.56;5112015;28;20197;-75
2024/01/06 04:03:51;;;;;;;23.37;21.87;;;;;;;-141.02;100.00;38829.88;5113238;28;20207;-75
2024/01/06 04:06:19;;;;;;;22.47;21.03;;;;;;;-141.02;100.00;38758.94;5116100;28;20272;-75
2024/01/06 04:08:46;;;;;;;23.30;21.80;;;;;;;-141.02;100.00;38703.34;5115796;28;20284;-75
2024/01/06 04:11:13;;;;;;;22.03;20.63;;;;;;;-141.02;100.00;38638.16;5115778;28;20199;-75
2024/01/06 04:13:40;;;;;;;21.90;20.50;;;;;;;-141.02;100.00;38615.13;5115751;28;20745;-75
2024/01/06 04:16:07;;;;;;;21.13;19.83;;;;;;;-141.02;100.00;38611.31;5115358;28;20237;-75
2024/01/06 04:18:34;;;;;;;18.97;17.67;;;;;;;-141.02;100.00;38638.16;5115970;28;20272;-75
2024/01/06 04:21:01;;;;;;;17.50;16.40;;;;;;;-141.02;100.00;38641.97;5115581;28;20280;-75
2024/01/06 04:23:29;;;;;;;19.60;18.40;;;;;;;-141.02;100.00;38647.72;5115892;28;20228;-75
2024/01/06 04:25:56;;;;;;;21.80;20.50;;;;;;;-141.02;100.00;38638.16;5115880;28;20272;-74
2024/01/06 04:28:23;;;;;;;18.47;17.27;;;;;;;-141.02;100.00;38665.00;5115719;28;20200;-74
2024/01/06 04:30:50;;;;;;;19.50;18.10;;;;;;;-141.02;100.00;38768.53;5115411;28;20231;-76
2024/01/06 04:33:17;;;;;;;24.53;22.73;;;;;;;-141.02;100.00;38902.75;5115668;28;20294;-74
2024/01/06 04:35:44;;;;;;;26.43;24.43;;;;;;;-141.02;100.00;38983.28;5115511;28;20224;-74
2024/01/06 04:38:11;;;;;;;24.10;22.20;;;;;;;-141.02;96.20;39117.53;5115687;28;20214;-74
2024/01/06 04:40:40;;;;;;;24.47;22.47;;;;;;;-141.02;100.00;39104.09;5115241;28;20683;-75
2024/01/06 04:43:07;;;;;;;27.60;25.43;;;;;;;-141.02;100.00;39113.69;5115203;28;20576;-74
2024/01/06 04:45:34;;;;;;;26.80;24.70;;;;;;;-141.02;100.00;39088.75;5115038;28;20578;-75
2024/01/06 04:48:01;;;;;;;28.73;26.47;;;;;;;-141.02;100.00;39130.94;5115106;28;20737;-74
2024/01/06 04:50:28;;;;;;;26.20;24.00;;;;;;;-141.02;97.25;39171.22;5115359;28;20276;-74
2024/01/06 04:52:55;;;;;;;33.63;31.03;;;;;;;-141.02;97.40;39148.19;5114963;28;20200;-74
2024/01/06 04:55:22;;;;;;;25.90;23.90;;;;;;;-141.02;98.88;39148.19;5115190;28;20215;-74
2024/01/06 04:57:51;;;;;;;28.43;26.33;;;;;;;-141.02;100.00;39175.06;5115147;28;20231;-74
2024/01/06 05:00:18;;;;;;;25.20;23.10;;;;;;;-141.02;100.00;39094.50;5114837;28;20284;-74
2024/01/06 05:02:45;;;;;;;29.53;27.33;;;;;;;-141.02;100.00;39115.59;5115068;28;20220;-75
2024/01/06 05:05:12;;;;;;;26.07;24.07;;;;;;;-141.02;100.00;39046.56;5114998;28;20228;-74
2024/01/06 05:07:39;;;;;;;26.87;24.87;;;;;;;-141.02;100.00;38989.03;5114701;28;20193;-74
2024/01/06 05:10:07;;;;;;;26.93;24.93;;;;;;;-141.02;100.00;39017.81;5114882;28;20200;-75
2024/01/06 05:12:34;;;;;;;23.97;22.27;;;;;;;-141.02;100.00;38941.09;5115016;28;20231;-74
2024/01/06 05:15:02;;;;;;;20.90;19.40;;;;;;;-141.02;100.00;38816.47;5114001;28;20696;-75
2024/01/06 05:17:29;;;;;;;19.33;18.03;;;;;;;-141.02;100.00;38734.03;5114724;28;20232;-74
2024/01/06 05:19:56;;;;;;;20.30;19.00;;;;;;;-141.02;100.00;38609.38;5114475;28;20285;-74
2024/01/06 05:22:23;;;;;;;18.40;17.30;;;;;;;-141.02;100.00;38496.28;5114361;28;20573;-75
2024/01/06 05:24:53;;;;;;;18.20;17.20;;;;;;;-141.02;100.00;38457.91;5114326;27;20204;-74
2024/01/06 05:27:20;;;;;;;18.20;17.20;;;;;;;-141.02;100.00;38398.50;5114592;28;20197;-73
2024/01/06 05:29:48;;;;;;;19.33;18.23;;;;;;;-141.02;100.00;38457.91;5114523;28;20193;-74
2024/01/06 05:32:17;;;;;;;19.17;18.00;;;;;;;-141.02;100.00;38578.72;5114207;28;20228;-74
2024/01/06 05:34:45;;;;;;;16.07;15.07;;;;;;;-141.02;100.00;38515.44;5114088;28;20197;-74
2024/01/06 05:37:12;;;;;;;17.93;16.93;;;;;;;-141.02;100.00;38526.94;5113959;28;20229;-74
2024/01/06 05:39:39;;;;;;;18.20;17.00;;;;;;;-141.02;100.00;38695.66;5114276;28;20225;-73
2024/01/06 05:42:07;;;;;;;20.00;18.70;;;;;;;-141.02;100.00;38764.69;5114074;28;20679;-74
2024/01/06 05:44:36;;;;;;;19.10;17.70;;;;;;;-141.02;100.00;38856.72;5113919;28;20280;-74
2024/01/06 05:47:08;;;;;;;24.40;22.70;;;;;;;-141.02;100.00;38833.72;5114220;28;20201;-75
2024/01/06 05:49:36;;;;;;;21.53;20.03;;;;;;;-141.02;100.00;38898.91;5114210;28;20221;-74
2024/01/06 05:52:03;;;;;;;22.90;21.30;;;;;;;-141.02;100.00;38858.66;5113823;28;20651;-75
2024/01/06 05:54:30;;;;;;;23.63;21.93;;;;;;;-141.02;100.00;39010.13;5113777;28;20201;-74
2024/01/06 05:56:57;;;;;;;20.70;19.10;;;;;;;-141.02;100.00;39048.50;5113838;28;20307;-74
2024/01/06 05:59:24;;;;;;;20.50;18.90;;;;;;;-141.02;100.00;39044.66;5113991;28;20197;-73
2024/01/06 06:01:50;;;;;;;22.53;20.77;;;;;;;-141.02;100.00;39054.25;5113812;28;20271;-75
2024/01/06 06:04:17;;;;;;;23.17;21.43;;;;;;;-141.02;100.00;39153.97;5113852;28;20285;-74
2024/01/06 06:06:45;;;;;;;20.17;18.67;;;;;;;-141.02;100.00;39148.19;5113801;28;20284;-75
2024/01/06 06:09:13;;;;;;;18.43;17.13;;;;;;;-141.02;100.00;39171.22;5113691;28;20189;-74
2024/01/06 06:11:40;;;;;;;20.43;19.07;;;;;;;-141.02;100.00;39238.34;5113365;28;20196;-74
2024/01/06 06:14:06;;;;;;;19.57;18.27;;;;;;;-141.02;100.00;39297.78;5113412;28;20196;-75
2024/01/06 06:16:33;;;;;;;21.93;20.53;;;;;;;-141.02;100.00;39384.09;5113624;28;20307;-74
2024/01/06 06:19:00;;;;;;;24.23;22.63;;;;;;;-141.02;100.00;39433.94;5113313;28;20201;-74
2024/01/06 06:21:27;;;;;;;25.50;23.80;;;;;;;-141.02;100.00;39499.16;5113249;28;20570;-74
2024/01/06 06:23:55;;;;;;;22.20;20.70;;;;;;;-141.02;100.00;39591.22;5113519;28;20280;-75
2024/01/06 06:26:23;;;;;;;27.73;26.03;;;;;;;-141.02;100.00;39650.66;5112679;28;20201;-74
2024/01/06 06:28:50;;;;;;;24.50;22.80;;;;;;;-141.02;100.00;39719.72;5113146;28;20232;-74
2024/01/06 06:31:17;;;;;;;27.00;25.20;;;;;;;-141.02;100.00;39758.06;5113345;28;20647;-74
2024/01/06 06:33:44;;;;;;;24.70;23.00;;;;;;;-141.02;100.00;39781.09;5112974;28;20726;-74
2024/01/06 06:36:11;;;;;;;26.70;24.90;;;;;;;-141.02;100.00;39903.84;5112887;28;20722;-74
2024/01/06 06:38:38;;;;;;;24.00;22.40;;;;;;;-141.02;100.00;39846.28;5113193;28;20284;-75
2024/01/06 06:41:06;;;;;;;26.77;24.97;;;;;;;-141.02;100.00;39877.00;5113182;28;20276;-74
2024/01/06 06:43:33;;;;;;;25.10;23.40;;;;;;;-141.02;100.00;39915.34;5113120;28;20193;-74
2024/01/06 06:46:00;;;;;;;25.77;24.07;;;;;;;-141.02;100.00;39972.88;5113154;28;20197;-74
2024/01/06 06:48:27;;;;;;;27.17;25.37;;;;;;;-141.02;100.00;39999.75;5112781;28;20284;-74
2024/01/06 06:50:54;;;;;;;27.00;25.20;;;;;;;-141.02;100.00;40072.63;5112729;28;20193;-74
2024/01/06 06:53:21;;;;;;;24.47;22.87;;;;;;;-141.02;100.00;40045.78;5113101;28;20775;-74
2024/01/06 06:55:48;;;;;;;25.83;24.13;;;;;;;-141.02;100.00;40034.28;5112933;28;20199;-74
2024/01/06 06:58:17;;;;;;;24.00;22.50;;;;;;;-141.02;100.00;40034.28;5112657;28;20279;-74
2024/01/06 07:00:44;;;;;;;24.70;23.10;;;;;;;-141.02;100.00;40057.28;5112544;28;20200;-75
2024/01/06 07:03:11;;;;;;;23.70;22.20;;;;;;;-141.02;100.00;40082.22;5112882;28;20224;-74
2024/01/06 07:05:39;;;;;;;23.93;22.43;;;;;;;-141.02;100.00;40172.38;5112578;28;20659;-74
2024/01/06 07:08:06;;;;;;;20.83;19.53;;;;;;;-141.02;100.00;40126.34;5112771;28;20196;-74
2024/01/06 07:10:33;;;;;;;22.70;21.30;;;;;;;-141.02;100.00;40158.94;5112698;28;20203;-74
2024/01/06 07:13:00;;;;;;;24.10;22.50;;;;;;;-141.02;100.00;40266.38;5112411;28;20651;-73
2024/01/06 07:15:28;;;;;;;24.70;23.00;;;;;;;-141.02;100.00;40387.22;5112333;28;20233;-73
2024/01/06 07:17:55;;;;;;;23.57;22.00;;;;;;;-141.02;100.00;40345.03;5112392;28;20714;-73
2024/01/06 07:20:22;;;;;;;29.03;27.13;;;;;;;-141.02;100.00;40268.28;5112291;28;20199;-74
2024/01/06 07:22:49;;;;;;;22.93;21.43;;;;;;;-141.02;100.00;40252.94;5112370;28;20287;-74
2024/01/06 07:25:16;;;;;;;25.00;23.40;;;;;;;-141.02;100.00;40272.13;5112318;28;20282;-74
2024/01/06 07:27:43;;;;;;;26.63;25.03;;;;;;;-141.02;100.00;40320.09;5112264;28;20193;-73
2024/01/06 07:30:11;;;;;;;26.57;24.87;;;;;;;-141.02;100.00;40352.69;5112248;28;20193;-73
2024/01/06 07:32:39;;;;;;;28.60;26.70;;;;;;;-141.02;100.00;40345.03;5112304;28;20236;-74
2024/01/06 07:35:06;;;;;;;25.23;23.53;;;;;;;-141.02;100.00;40327.75;5112568;28;20199;-74
2024/01/06 07:37:33;;;;;;;26.73;24.97;;;;;;;-141.02;100.00;40439.03;5113045;28;20312;-74
2024/01/06 07:40:00;;;;;;;21.83;20.33;;;;;;;-141.02;100.00;40463.97;5116398;28;20288;-73
2024/01/06 07:42:27;;;;;;;22.80;21.20;;;;;;;-141.02;100.00;40492.75;5116319;28;20195;-73
2024/01/06 07:44:53;;;;;;;21.60;20.10;;;;;;;-141.02;100.00;40502.34;5116312;28;20189;-73
2024/01/06 07:47:20;;;;;;;23.40;21.80;;;;;;;-141.02;100.00;40567.56;5116310;27;20232;-73
2024/01/06 07:49:48;;;;;;;22.50;21.00;;;;;;;-141.02;100.00;40642.38;5116188;28;20578;-73
2024/01/06 07:52:15;;;;;;;21.87;20.37;;;;;;;-141.02;100.00;40651.97;5116190;28;20568;-74
2024/01/06 07:54:42;;;;;;;24.27;22.47;;;;;;;-141.02;100.00;40682.66;5116099;28;20208;-74
2024/01/06 07:57:11;;;;;;;21.67;19.97;;;;;;;-141.02;100.00;40767.09;5116314;28;20224;-73
2024/01/06 07:59:38;;;;;;;32.80;30.50;;;;;;;-141.02;100.00;40828.47;5116010;28;20193;-74
2024/01/06 08:02:05;;;;;;;30.20;28.10;;;;;;;-141.02;100.00;40863.00;5116222;28;20292;-73
2024/01/06 08:04:32;;;;;;;32.63;30.33;;;;;;;-141.02;100.00;40907.16;5115863;28;20193;-74
2024/01/06 08:07:00;;;;;;;27.27;25.27;;;;;;;-141.02;100.00;40932.09;5116216;28;20284;-73
2024/01/06 08:09:27;;;;;;;30.93;28.73;;;;;;;-141.02;100.00;40993.47;5116175;28;20199;-74
2024/01/06 08:11:54;;;;;;;33.53;31.13;;;;;;;-141.02;100.00;41079.81;5115756;28;20285;-73
2024/01/06 08:14:21;;;;;;;34.60;32.10;;;;;;;-141.02;100.00;41099.00;5115521;28;20225;-73
2024/01/06 08:16:48;;;;;;;37.07;34.37;;;;;;;-141.02;100.00;41254.44;5115623;28;20219;-73
2024/01/06 08:19:15;;;;;;;32.13;29.73;;;;;;;-141.02;100.00;41200.72;5115594;28;20200;-73
2024/01/06 08:21:42;;;;;;;37.70;35.00;;;;;;;-141.02;99.19;40939.75;5115884;28;20193;-74
2024/01/06 08:24:11;;;;;;;35.05;32.45;;;;;;;-141.02;100.00;41029.94;5115874;28;20538;-74
2024/01/06 08:26:38;;;;;;;36.13;33.53;;;;;;;-141.02;100.00;41219.91;5115803;28;20200;-73
2024/01/06 08:29:05;;;;;;;33.97;31.48;;;;;;;-141.02;100.00;41185.34;5115407;28;20587;-73
2024/01/06 08:31:33;;;;;;;30.85;28.65;;;;;;;-141.02;100.00;41047.22;5115628;28;20197;-73
2024/01/06 08:34:00;;;;;;;32.80;30.40;;;;;;;-141.02;100.00;41260.19;5116314;28;20199;-73
2024/01/06 08:36:27;;;;;;;34.87;32.27;;;;;;;-141.02;98.20;41246.75;5115239;28;20223;-74
2024/01/06 08:38:54;;;;;;;33.85;31.35;;;;;;;-141.02;99.42;41077.91;5115623;28;20193;-74
2024/01/06 08:41:22;;;;;;;32.75;30.33;;;;;;;-141.02;95.36;40970.47;5115502;28;20220;-73
2024/01/06 08:43:49;;;;;;;35.05;32.45;;;;;;;-141.02;92.06;41043.38;5115143;28;20655;-74
2024/01/06 08:46:16;;;;;;;33.80;31.30;;;;;;;-141.02;95.57;41114.38;5115106;28;20197;-73
2024/01/06 08:48:43;;;;;;;28.07;25.87;;;;;;;-141.02;90.62;41043.38;5115135;28;20283;-73
2024/01/06 08:51:10;;;;;;;29.87;27.57;;;;;;;-141.02;92.37;41237.16;5114738;28;20196;-74
2024/01/06 08:53:37;;;;;;;29.05;26.75;;;;;;;-141.02;86.72;41288.97;5114980;28;20200;-73
2024/01/06 08:56:06;;;;;;;28.73;26.52;;;;;;;-141.02;93.51;41442.50;5114977;28;20200;-73
2024/01/06 08:58:34;;;;;;;28.90;26.70;;;;;;;-141.02;86.94;41482.78;5115245;28;20225;-74
2024/01/06 09:01:01;;;;;;;29.05;26.75;;;;;;;-141.02;83.12;41419.47;5115116;28;20630;-73
2024/01/06 09:03:28;;;;;;;30.02;27.70;;;;;;;-141.02;82.49;41388.75;5114816;28;20649;-74
2024/01/06 09:05:57;;;;;;;32.05;29.55;;;;;;;-141.02;81.88;41753.38;5115028;28;20225;-74
2024/01/06 09:08:25;;;;;;;37.33;34.53;;;;;;;-141.02;82.95;41983.69;5115018;28;20205;-73
2024/01/06 09:10:55;;;;;;;23.17;20.98;;;;;;;-141.02;78.03;41801.34;5114639;28;20197;-73
2024/01/06 09:13:23;;;;;;;23.92;21.73;;;;;;;-141.02;76.69;41876.19;5114934;28;20280;-73
2024/01/06 09:15:52;;;;;;;30.67;28.10;;;;;;;-141.02;75.76;41979.84;5114388;28;20643;-74
2024/01/06 09:18:19;;;;;;;23.65;21.42;;;;;;;-141.02;75.57;42114.19;5114680;28;20224;-73
2024/01/06 09:20:47;;;;;;;24.02;21.73;;;;;;;-141.02;72.80;41995.19;5114453;28;20651;-73
2024/01/06 09:23:14;;;;;;;23.77;21.58;;;;;;;-141.02;68.59;41979.84;5114633;28;20193;-73
2024/01/06 09:25:41;;;;;;;26.05;23.80;;;;;;;-141.02;70.93;42008.63;5114699;28;20197;-73
2024/01/06 09:28:08;;;;;;;24.70;22.30;;;;;;;-141.02;70.22;41941.44;5114290;28;20573;-74
2024/01/06 09:30:35;;;;;;;24.52;22.23;;;;;;;-141.02;69.50;41883.88;5114242;28;20193;-73
2024/01/06 09:33:04;;;;;;;29.45;26.95;;;;;;;-141.02;73.95;41724.59;5114186;28;20201;-73
2024/01/06 09:35:32;;;;;;;24.38;22.17;;;;;;;-141.02;73.22;41645.91;5114211;27;20193;-73
2024/01/06 09:37:59;;;;;;;23.90;21.70;;;;;;;-141.02;74.99;41467.44;5114070;28;20655;-74
2024/01/06 09:40:26;;;;;;;23.83;21.63;;;;;;;-141.02;75.53;41584.50;5114089;28;20201;-73
2024/01/06 09:42:53;;;;;;;23.73;21.52;;;;;;;-141.02;75.57;42047.00;5114320;28;20221;-74
2024/01/06 09:45:20;;;;;;;27.20;24.90;;;;;;;-141.02;73.48;41780.25;5114009;28;20197;-73
2024/01/06 09:47:50;;;;;;;23.95;21.75;;;;;;;-141.02;73.52;41448.25;5113857;28;20197;-73
2024/01/06 09:50:22;;;;;;;23.58;21.40;;;;;;;-141.02;78.64;41450.16;5113853;28;20197;-74
2024/01/06 09:52:53;;;;;;;33.20;30.60;;;;;;;-141.02;76.19;41442.50;5113766;28;20685;-74
2024/01/06 09:55:26;;;;;;;26.75;24.45;;;;;;;-141.02;78.33;41302.41;5113833;28;20666;-73
2024/01/06 09:57:54;;;;;;;23.30;21.15;;;;;;;-141.02;76.19;41271.72;5113682;28;20209;-73
2024/01/06 10:00:21;;;;;;;23.58;21.38;;;;;;;-141.02;76.21;41265.94;5113708;28;20200;-74
2024/01/06 10:02:48;;;;;;;30.80;28.30;;;;;;;-141.02;78.85;41277.47;5113556;28;20189;-74
2024/01/06 10:05:16;;;;;;;29.52;27.10;;;;;;;-141.02;77.69;41217.97;5113595;28;20197;-73
2024/01/06 10:07:45;;;;;;;23.35;21.25;;;;;;;-141.02;81.22;41273.63;5113885;28;20225;-73
2024/01/06 10:10:12;;;;;;;22.83;20.73;;;;;;;-141.02;80.33;41231.41;5113482;28;20578;-74
2024/01/06 10:12:40;;;;;;;27.60;25.30;;;;;;;-141.02;80.36;41214.13;5113779;28;20280;-74
2024/01/06 10:15:08;;;;;;;29.65;27.25;;;;;;;-141.02;81.11;41137.38;5113298;28;20561;-74
2024/01/06 10:17:37;;;;;;;22.90;20.90;;;;;;;-141.02;82.27;41173.84;5113200;28;20264;-73
2024/01/06 10:20:08;;;;;;;23.40;21.30;;;;;;;-141.02;81.91;41156.56;5113269;28;20207;-74
2024/01/06 10:22:36;;;;;;;26.45;24.25;;;;;;;-141.02;81.56;41146.97;5113353;28;20695;-73
2024/01/06 10:25:07;;;;;;;24.93;22.83;;;;;;;-141.02;84.35;41212.22;5113212;28;20662;-73
2024/01/06 10:27:35;;;;;;;22.13;20.13;;;;;;;-141.02;82.11;41227.56;5113498;28;20596;-73
2024/01/06 10:30:02;;;;;;;22.50;20.50;;;;;;;-141.02;83.88;41319.69;5113427;28;20197;-73
2024/01/06 10:32:32;;;;;;;25.60;23.50;;;;;;;-141.02;82.85;41388.75;5113035;28;20193;-73
2024/01/06 10:35:01;;;;;;;25.60;23.43;;;;;;;-141.02;80.86;41430.97;5113389;28;20199;-74
2024/01/06 10:37:28;;;;;;;21.90;19.90;;;;;;;-141.02;82.69;41490.47;5113135;28;20313;-74
2024/01/06 10:40:08;;;;;;;22.13;20.13;;;;;;;-141.02;81.32;41505.81;5113264;28;20197;-73
2024/01/06 10:42:36;;;;;;;29.60;27.20;;;;;;;-141.02;80.45;41574.91;5113182;28;20264;-73
2024/01/06 10:45:07;;;;;;;29.35;26.95;;;;;;;-141.02;78.95;41461.69;5112754;28;20207;-73
2024/01/06 10:47:35;;;;;;;22.10;20.00;;;;;;;-141.02;80.65;41423.28;5113122;28;20549;-73
2024/01/06 10:50:03;;;;;;;22.80;20.70;;;;;;;-141.02;79.03;41411.78;5113158;28;20195;-73
2024/01/06 10:52:30;;;;;;;30.50;28.00;;;;;;;-141.02;76.43;41411.78;5112592;28;20192;-73
2024/01/06 10:54:58;;;;;;;22.92;20.80;;;;;;;-141.02;77.47;41335.03;5112910;28;20193;-73
2024/01/06 10:57:31;;;;;;;23.10;21.00;;;;;;;-141.02;78.17;41285.13;5112425;28;20672;-73